Řízení letového provozu České republiky
Letiste: LKMT Aktualizace: 20.01.2019 11:31:06  UTC
 METAR LKMT 20.01. 11:30 ...
METAR LKMT 201130Z 04004KT 3000 BR NSC M02/M05 Q1016 R04/31//95 TEMPO 5000 BR RMK REG QNH 1010=
 TAF LKMT 20.01. 11:00 AMD
TAF AMD LKMT 201100Z 2012/2118 05004KT 2500 BR NSC      TEMPO 2012/2016 5000 BR BKN017      BECMG 2102/2104 0500 FZFG BKN004      TEMPO 2104/2108 0200 FZFG VV001      BECMG 2108/2110 6000 BKN012      BECMG 2113/2115 CAVOK      BECMG 2117/2118 VRB02KT=